sensor_id;sensor_type;location;lat;lon;timestamp;pressure;altitude;pressure_sealevel;temperature;humidity
68525;BME280;55524;51.380;13.372;2022-09-27T00:00:35;98803.19;;;11.70;80.26
68525;BME280;55524;51.380;13.372;2022-09-27T00:03:22;98799.91;;;11.66;80.62
68525;BME280;55524;51.380;13.372;2022-09-27T00:06:35;98798.03;;;11.68;80.42
68525;BME280;55524;51.380;13.372;2022-09-27T00:09:30;98789.97;;;11.70;80.34
68525;BME280;55524;51.380;13.372;2022-09-27T00:12:40;98777.47;;;11.72;80.05
68525;BME280;55524;51.380;13.372;2022-09-27T00:15:29;98772.81;;;11.75;79.54
68525;BME280;55524;51.380;13.372;2022-09-27T00:18:41;98766.25;;;11.81;79.28
68525;BME280;55524;51.380;13.372;2022-09-27T00:25:09;98766.47;;;11.91;79.27
68525;BME280;55524;51.380;13.372;2022-09-27T00:28:18;98761.81;;;11.94;79.73
68525;BME280;55524;51.380;13.372;2022-09-27T00:31:17;98748.69;;;12.05;78.73
68525;BME280;55524;51.380;13.372;2022-09-27T00:37:12;98753.09;;;12.18;77.59
68525;BME280;55524;51.380;13.372;2022-09-27T00:43:07;98737.97;;;12.20;76.38
68525;BME280;55524;51.380;13.372;2022-09-27T00:46:41;98728.72;;;12.25;77.27
68525;BME280;55524;51.380;13.372;2022-09-27T00:49:27;98721.09;;;12.21;77.50
68525;BME280;55524;51.380;13.372;2022-09-27T00:52:13;98723.97;;;12.18;77.59
68525;BME280;55524;51.380;13.372;2022-09-27T00:54:45;98706.47;;;12.15;77.60
68525;BME280;55524;51.380;13.372;2022-09-27T00:57:45;98703.97;;;12.14;76.80
68525;BME280;55524;51.380;13.372;2022-09-27T01:00:56;98699.69;;;12.24;75.95
68525;BME280;55524;51.380;13.372;2022-09-27T01:03:50;98692.59;;;12.24;75.78
68525;BME280;55524;51.380;13.372;2022-09-27T01:06:33;98696.94;;;12.25;76.11
68525;BME280;55524;51.380;13.372;2022-09-27T01:09:17;98692.47;;;12.26;76.50
68525;BME280;55524;51.380;13.372;2022-09-27T01:12:30;98694.63;;;12.21;77.27
68525;BME280;55524;51.380;13.372;2022-09-27T01:47:54;98633.00;;;12.54;74.13
68525;BME280;55524;51.380;13.372;2022-09-27T01:54:31;98622.94;;;12.59;73.03
68525;BME280;55524;51.380;13.372;2022-09-27T01:57:31;98619.09;;;12.63;72.72
68525;BME280;55524;51.380;13.372;2022-09-27T02:00:29;98625.84;;;12.67;72.72
68525;BME280;55524;51.380;13.372;2022-09-27T02:03:49;98627.25;;;12.60;74.30
68525;BME280;55524;51.380;13.372;2022-09-27T02:06:50;98629.28;;;12.57;74.40
68525;BME280;55524;51.380;13.372;2022-09-27T02:09:30;98633.56;;;12.46;75.71
68525;BME280;55524;51.380;13.372;2022-09-27T02:15:23;98621.03;;;12.37;76.86
68525;BME280;55524;51.380;13.372;2022-09-27T02:18:04;98617.06;;;12.43;75.92
68525;BME280;55524;51.380;13.372;2022-09-27T02:24:20;98599.13;;;12.46;75.26
68525;BME280;55524;51.380;13.372;2022-09-27T02:27:23;98596.13;;;12.51;74.20
68525;BME280;55524;51.380;13.372;2022-09-27T02:30:28;98595.53;;;12.47;75.11
68525;BME280;55524;51.380;13.372;2022-09-27T02:33:25;98609.72;;;12.46;75.57
68525;BME280;55524;51.380;13.372;2022-09-27T02:39:35;98602.69;;;12.34;76.94
68525;BME280;55524;51.380;13.372;2022-09-27T02:42:43;98597.75;;;12.29;77.94
68525;BME280;55524;51.380;13.372;2022-09-27T02:45:28;98594.13;;;12.30;76.90
68525;BME280;55524;51.380;13.372;2022-09-27T02:58:00;98597.00;;;12.03;81.48
68525;BME280;55524;51.380;13.372;2022-09-27T03:07:36;98581.66;;;11.85;82.49
68525;BME280;55524;51.380;13.372;2022-09-27T03:10:35;98578.66;;;11.89;83.04
68525;BME280;55524;51.380;13.372;2022-09-27T03:13:21;98578.66;;;11.89;82.77
68525;BME280;55524;51.380;13.372;2022-09-27T03:16:25;98576.44;;;11.83;83.79
68525;BME280;55524;51.380;13.372;2022-09-27T03:22:28;98567.75;;;11.81;83.86
68525;BME280;55524;51.380;13.372;2022-09-27T03:25:00;98566.78;;;11.82;84.49
68525;BME280;55524;51.380;13.372;2022-09-27T03:28:02;98573.69;;;11.72;86.29
68525;BME280;55524;51.380;13.372;2022-09-27T03:30:37;98569.81;;;11.65;86.99
68525;BME280;55524;51.380;13.372;2022-09-27T03:33:44;98559.75;;;11.70;86.39
68525;BME280;55524;51.380;13.372;2022-09-27T03:36:16;98561.88;;;11.65;87.19
68525;BME280;55524;51.380;13.372;2022-09-27T03:39:03;98555.75;;;11.64;87.28
68525;BME280;55524;51.380;13.372;2022-09-27T03:44:43;98547.81;;;11.51;88.69
68525;BME280;55524;51.380;13.372;2022-09-27T03:47:09;98548.28;;;11.45;90.69
68525;BME280;55524;51.380;13.372;2022-09-27T03:53:14;98543.34;;;11.41;90.41
68525;BME280;55524;51.380;13.372;2022-09-27T03:55:47;98542.25;;;11.43;89.93
68525;BME280;55524;51.380;13.372;2022-09-27T03:58:37;98538.75;;;11.43;90.95
68525;BME280;55524;51.380;13.372;2022-09-27T04:01:39;98540.06;;;11.37;91.50
68525;BME280;55524;51.380;13.372;2022-09-27T04:04:12;98537.84;;;11.31;92.77
68525;BME280;55524;51.380;13.372;2022-09-27T04:07:32;98525.78;;;11.27;93.25
68525;BME280;55524;51.380;13.372;2022-09-27T04:10:25;98528.97;;;11.19;94.18
68525;BME280;55524;51.380;13.372;2022-09-27T04:13:20;98532.59;;;11.18;93.85
68525;BME280;55524;51.380;13.372;2022-09-27T04:16:10;98533.13;;;11.11;96.04
68525;BME280;55524;51.380;13.372;2022-09-27T04:18:59;98528.34;;;11.16;95.90
68525;BME280;55524;51.380;13.372;2022-09-27T04:21:55;98528.34;;;11.16;96.40
68525;BME280;55524;51.380;13.372;2022-09-27T04:24:54;98529.97;;;11.05;96.52
68525;BME280;55524;51.380;13.372;2022-09-27T04:30:22;98526.34;;;11.06;98.52
68525;BME280;55524;51.380;13.372;2022-09-27T04:33:03;98524.69;;;11.05;98.16
68525;BME280;55524;51.380;13.372;2022-09-27T04:35:35;98523.59;;;11.08;97.96
68525;BME280;55524;51.380;13.372;2022-09-27T04:38:32;98529.53;;;10.99;99.06
68525;BME280;55524;51.380;13.372;2022-09-27T04:41:22;98527.84;;;10.98;98.13
68525;BME280;55524;51.380;13.372;2022-09-27T04:43:54;98528.50;;;11.01;97.58
68525;BME280;55524;51.380;13.372;2022-09-27T04:46:59;98538.75;;;10.93;99.15
68525;BME280;55524;51.380;13.372;2022-09-27T04:55:26;98542.44;;;11.03;98.81
68525;BME280;55524;51.380;13.372;2022-09-27T04:58:35;98541.59;;;10.90;100.00
68525;BME280;55524;51.380;13.372;2022-09-27T05:10:49;98539.06;;;10.76;100.00
68525;BME280;55524;51.380;13.372;2022-09-27T05:14:19;98535.69;;;10.74;100.00
68525;BME280;55524;51.380;13.372;2022-09-27T05:17:08;98539.69;;;10.79;100.00
68525;BME280;55524;51.380;13.372;2022-09-27T05:20:22;98534.84;;;10.86;100.00
68525;BME280;55524;51.380;13.372;2022-09-27T05:23:29;98540.34;;;10.83;100.00
68525;BME280;55524;51.380;13.372;2022-09-27T05:32:49;98527.09;;;10.96;100.00
68525;BME280;55524;51.380;13.372;2022-09-27T05:35:39;98522.78;;;10.95;100.00
68525;BME280;55524;51.380;13.372;2022-09-27T05:38:49;98522.25;;;11.02;98.12
68525;BME280;55524;51.380;13.372;2022-09-27T05:42:16;98525.19;;;11.11;96.47
68525;BME280;55524;51.380;13.372;2022-09-27T05:45:25;98519.06;;;11.10;97.38
68525;BME280;55524;51.380;13.372;2022-09-27T05:51:31;98515.03;;;11.04;98.52
68525;BME280;55524;51.380;13.372;2022-09-27T05:54:26;98525.53;;;11.06;99.10
68525;BME280;55524;51.380;13.372;2022-09-27T05:57:19;98526.56;;;11.03;100.00
68525;BME280;55524;51.380;13.372;2022-09-27T06:06:30;98518.84;;;11.13;99.95
68525;BME280;55524;51.380;13.372;2022-09-27T06:09:02;98523.28;;;11.13;100.00
68525;BME280;55524;51.380;13.372;2022-09-27T06:11:38;98522.13;;;11.17;98.88
68525;BME280;55524;51.380;13.372;2022-09-27T06:14:16;98532.38;;;11.21;98.30
68525;BME280;55524;51.380;13.372;2022-09-27T06:16:51;98528.66;;;11.24;98.84
68525;BME280;55524;51.380;13.372;2022-09-27T06:19:27;98530.56;;;11.22;100.00
68525;BME280;55524;51.380;13.372;2022-09-27T06:22:03;98528.00;;;11.20;100.00
68525;BME280;55524;51.380;13.372;2022-09-27T06:25:30;98519.38;;;11.18;100.00
68525;BME280;55524;51.380;13.372;2022-09-27T06:27:58;98523.69;;;11.19;98.93
68525;BME280;55524;51.380;13.372;2022-09-27T06:31:00;98522.84;;;11.19;100.00
68525;BME280;55524;51.380;13.372;2022-09-27T06:33:53;98523.16;;;11.27;100.00
68525;BME280;55524;51.380;13.372;2022-09-27T06:36:37;98526.53;;;11.29;100.00
68525;BME280;55524;51.380;13.372;2022-09-27T06:42:29;98520.72;;;11.37;99.71
68525;BME280;55524;51.380;13.372;2022-09-27T06:45:24;98525.75;;;11.40;100.00
68525;BME280;55524;51.380;13.372;2022-09-27T06:51:15;98510.50;;;11.43;100.00
68525;BME280;55524;51.380;13.372;2022-09-27T06:54:11;98517.03;;;11.50;100.00
68525;BME280;55524;51.380;13.372;2022-09-27T06:57:23;98510.91;;;11.50;100.00
68525;BME280;55524;51.380;13.372;2022-09-27T07:00:10;98514.06;;;11.55;100.00
68525;BME280;55524;51.380;13.372;2022-09-27T07:02:49;98515.88;;;11.54;99.98
68525;BME280;55524;51.380;13.372;2022-09-27T07:05:19;98511.72;;;11.63;100.00
68525;BME280;55524;51.380;13.372;2022-09-27T07:07:45;98511.06;;;11.72;100.00
68525;BME280;55524;51.380;13.372;2022-09-27T07:10:20;98508.69;;;11.80;99.99
68525;BME280;55524;51.380;13.372;2022-09-27T07:12:47;98512.19;;;11.81;98.84
68525;BME280;55524;51.380;13.372;2022-09-27T07:15:14;98513.53;;;11.87;96.45
68525;BME280;55524;51.380;13.372;2022-09-27T07:17:40;98522.31;;;11.87;98.16
68525;BME280;55524;51.380;13.372;2022-09-27T07:20:08;98517.47;;;11.81;97.62
68525;BME280;55524;51.380;13.372;2022-09-27T07:22:44;98521.28;;;11.77;97.78
68525;BME280;55524;51.380;13.372;2022-09-27T07:25:11;98517.28;;;11.84;96.86
68525;BME280;55524;51.380;13.372;2022-09-27T07:27:38;98525.75;;;11.76;96.49
68525;BME280;55524;51.380;13.372;2022-09-27T07:30:07;98534.19;;;11.81;97.55
68525;BME280;55524;51.380;13.372;2022-09-27T07:32:34;98527.63;;;11.87;97.43
68525;BME280;55524;51.380;13.372;2022-09-27T07:35:03;98525.16;;;11.97;97.35
68525;BME280;55524;51.380;13.372;2022-09-27T07:37:31;98534.00;;;12.09;97.53
68525;BME280;55524;51.380;13.372;2022-09-27T07:39:59;98535.09;;;12.17;95.67
68525;BME280;55524;51.380;13.372;2022-09-27T07:42:25;98529.44;;;12.22;95.30
68525;BME280;55524;51.380;13.372;2022-09-27T07:44:54;98531.88;;;12.25;94.70
68525;BME280;55524;51.380;13.372;2022-09-27T07:47:24;98535.50;;;12.24;94.77
68525;BME280;55524;51.380;13.372;2022-09-27T07:49:52;98536.69;;;12.20;95.01
68525;BME280;55524;51.380;13.372;2022-09-27T07:52:18;98536.69;;;12.20;93.17
68525;BME280;55524;51.380;13.372;2022-09-27T07:54:48;98533.41;;;12.16;93.86
68525;BME280;55524;51.380;13.372;2022-09-27T07:57:16;98538.38;;;12.21;93.95
68525;BME280;55524;51.380;13.372;2022-09-27T07:59:46;98535.31;;;12.14;92.27
68525;BME280;55524;51.380;13.372;2022-09-27T08:02:15;98534.47;;;12.14;93.07
68525;BME280;55524;51.380;13.372;2022-09-27T08:04:41;98538.09;;;12.13;94.59
68525;BME280;55524;51.380;13.372;2022-09-27T08:07:09;98536.16;;;12.15;93.17
68525;BME280;55524;51.380;13.372;2022-09-27T08:09:36;98529.81;;;12.17;93.53
68525;BME280;55524;51.380;13.372;2022-09-27T08:12:02;98534.25;;;12.17;93.83
68525;BME280;55524;51.380;13.372;2022-09-27T08:14:30;98537.75;;;12.17;94.90
68525;BME280;55524;51.380;13.372;2022-09-27T08:16:56;98535.72;;;12.21;95.04
68525;BME280;55524;51.380;13.372;2022-09-27T08:19:23;98538.00;;;12.25;93.53
68525;BME280;55524;51.380;13.372;2022-09-27T08:21:51;98539.81;;;12.25;93.61
68525;BME280;55524;51.380;13.372;2022-09-27T08:24:20;98541.06;;;12.32;94.90
68525;BME280;55524;51.380;13.372;2022-09-27T08:26:46;98543.72;;;12.32;93.02
68525;BME280;55524;51.380;13.372;2022-09-27T08:29:13;98543.97;;;12.40;92.57
68525;BME280;55524;51.380;13.372;2022-09-27T08:31:39;98542.66;;;12.46;94.03
68525;BME280;55524;51.380;13.372;2022-09-27T08:34:05;98537.75;;;12.52;92.71
68525;BME280;55524;51.380;13.372;2022-09-27T08:36:31;98544.22;;;12.48;94.45
68525;BME280;55524;51.380;13.372;2022-09-27T08:39:01;98539.16;;;12.45;92.80
68525;BME280;55524;51.380;13.372;2022-09-27T08:41:34;98545.16;;;12.36;93.53
68525;BME280;55524;51.380;13.372;2022-09-27T08:47:23;98549.94;;;12.20;96.00
68525;BME280;55524;51.380;13.372;2022-09-27T08:49:57;98549.44;;;12.26;95.14
68525;BME280;55524;51.380;13.372;2022-09-27T08:54:59;98551.97;;;12.51;95.62
68525;BME280;55524;51.380;13.372;2022-09-27T08:57:26;98554.50;;;12.64;94.81
68525;BME280;55524;51.380;13.372;2022-09-27T09:00:11;98552.22;;;12.60;92.93
68525;BME280;55524;51.380;13.372;2022-09-27T09:02:37;98560.25;;;12.58;92.96
68525;BME280;55524;51.380;13.372;2022-09-27T09:05:27;98564.09;;;12.54;93.43
68525;BME280;55524;51.380;13.372;2022-09-27T09:10:48;98562.28;;;12.54;91.63
68525;BME280;55524;51.380;13.372;2022-09-27T09:19:21;98560.84;;;13.19;88.42
68525;BME280;55524;51.380;13.372;2022-09-27T09:30:23;98565.03;;;13.22;87.19
68525;BME280;55524;51.380;13.372;2022-09-27T09:33:11;98560.38;;;13.25;87.22
68525;BME280;55524;51.380;13.372;2022-09-27T09:39:27;98555.44;;;13.32;83.99
68525;BME280;55524;51.380;13.372;2022-09-27T09:44:43;98543.38;;;13.28;84.44
68525;BME280;55524;51.380;13.372;2022-09-27T09:47:37;98542.75;;;13.47;82.77
68525;BME280;55524;51.380;13.372;2022-09-27T09:50:17;98537.06;;;14.06;82.54
68525;BME280;55524;51.380;13.372;2022-09-27T09:52:49;98519.03;;;14.42;79.09
68525;BME280;55524;51.380;13.372;2022-09-27T09:55:18;98505.22;;;15.30;75.95
68525;BME280;55524;51.380;13.372;2022-09-27T10:00:44;98510.53;;;14.90;76.24
68525;BME280;55524;51.380;13.372;2022-09-27T10:03:10;98522.00;;;14.48;78.67
68525;BME280;55524;51.380;13.372;2022-09-27T10:05:36;98515.38;;;14.22;77.56
68525;BME280;55524;51.380;13.372;2022-09-27T10:08:10;98515.84;;;13.63;78.80
68525;BME280;55524;51.380;13.372;2022-09-27T10:10:37;98534.91;;;13.34;82.04
68525;BME280;55524;51.380;13.372;2022-09-27T10:13:05;98550.09;;;12.87;85.48
68525;BME280;55524;51.380;13.372;2022-09-27T10:15:38;98565.41;;;12.13;92.89
68525;BME280;55524;51.380;13.372;2022-09-27T10:18:19;98566.38;;;11.75;100.00
68525;BME280;55524;51.380;13.372;2022-09-27T10:21:27;98575.53;;;11.58;100.00
68525;BME280;55524;51.380;13.372;2022-09-27T10:24:30;98575.25;;;11.50;100.00
68525;BME280;55524;51.380;13.372;2022-09-27T10:27:36;98573.38;;;11.27;100.00
68525;BME280;55524;51.380;13.372;2022-09-27T10:30:31;98577.88;;;11.50;100.00
68525;BME280;55524;51.380;13.372;2022-09-27T10:33:27;98579.44;;;12.02;100.00
68525;BME280;55524;51.380;13.372;2022-09-27T10:36:02;98587.53;;;12.83;100.00
68525;BME280;55524;51.380;13.372;2022-09-27T10:38:34;98582.94;;;13.31;100.00
68525;BME280;55524;51.380;13.372;2022-09-27T10:41:26;98573.53;;;13.93;97.27
68525;BME280;55524;51.380;13.372;2022-09-27T10:43:57;98575.72;;;13.99;93.75
68525;BME280;55524;51.380;13.372;2022-09-27T10:46:54;98578.78;;;13.83;89.74
68525;BME280;55524;51.380;13.372;2022-09-27T10:52:04;98585.97;;;13.26;86.36
68525;BME280;55524;51.380;13.372;2022-09-27T10:54:36;98581.13;;;13.32;87.92
68525;BME280;55524;51.380;13.372;2022-09-27T10:59:42;98603.09;;;12.41;87.29
68525;BME280;55524;51.380;13.372;2022-09-27T11:02:36;98616.06;;;12.09;89.48
68525;BME280;55524;51.380;13.372;2022-09-27T11:05:13;98617.06;;;11.82;91.12
68525;BME280;55524;51.380;13.372;2022-09-27T11:07:53;98622.69;;;11.77;92.46
68525;BME280;55524;51.380;13.372;2022-09-27T11:10:26;98639.03;;;11.58;91.25
68525;BME280;55524;51.380;13.372;2022-09-27T11:13:26;98646.47;;;11.28;93.09
68525;BME280;55524;51.380;13.372;2022-09-27T11:46:31;98655.50;;;11.75;88.48
68525;BME280;55524;51.380;13.372;2022-09-27T11:52:12;98646.09;;;11.96;90.56
68525;BME280;55524;51.380;13.372;2022-09-27T11:54:49;98648.13;;;12.17;90.24
68525;BME280;55524;51.380;13.372;2022-09-27T11:57:38;98642.56;;;12.33;89.31
68525;BME280;55524;51.380;13.372;2022-09-27T12:10:41;98643.88;;;12.62;84.63
68525;BME280;55524;51.380;13.372;2022-09-27T12:13:14;98635.66;;;12.89;84.31
68525;BME280;55524;51.380;13.372;2022-09-27T12:15:45;98643.16;;;12.95;82.33
68525;BME280;55524;51.380;13.372;2022-09-27T12:18:26;98646.47;;;12.75;83.19
68525;BME280;55524;51.380;13.372;2022-09-27T12:20:55;98652.44;;;12.66;84.46
68525;BME280;55524;51.380;13.372;2022-09-27T12:23:28;98664.78;;;12.54;86.53
68525;BME280;55524;51.380;13.372;2022-09-27T12:26:09;98655.88;;;12.55;86.19
68525;BME280;55524;51.380;13.372;2022-09-27T12:28:47;98655.28;;;12.51;86.43
68525;BME280;55524;51.380;13.372;2022-09-27T12:34:18;98652.28;;;12.56;87.75
68525;BME280;55524;51.380;13.372;2022-09-27T12:36:58;98662.50;;;12.49;87.53
68525;BME280;55524;51.380;13.372;2022-09-27T12:42:31;98654.94;;;12.56;87.04
68525;BME280;55524;51.380;13.372;2022-09-27T12:45:00;98662.47;;;12.73;85.70
68525;BME280;55524;51.380;13.372;2022-09-27T12:50:34;98652.94;;;12.71;83.67
68525;BME280;55524;51.380;13.372;2022-09-27T12:53:32;98649.97;;;12.87;85.12
68525;BME280;55524;51.380;13.372;2022-09-27T12:56:08;98653.44;;;12.76;85.36
68525;BME280;55524;51.380;13.372;2022-09-27T13:01:50;98662.00;;;12.44;85.91
68525;BME280;55524;51.380;13.372;2022-09-27T13:10:37;98664.56;;;12.09;82.48
68525;BME280;55524;51.380;13.372;2022-09-27T13:13:09;98661.81;;;12.11;83.09
68525;BME280;55524;51.380;13.372;2022-09-27T13:15:38;98662.44;;;12.14;84.76
68525;BME280;55524;51.380;13.372;2022-09-27T13:18:27;98659.50;;;12.06;85.44
68525;BME280;55524;51.380;13.372;2022-09-27T13:20:53;98668.94;;;11.97;87.75
68525;BME280;55524;51.380;13.372;2022-09-27T13:25:53;98659.06;;;12.12;87.13
68525;BME280;55524;51.380;13.372;2022-09-27T13:31:10;98664.34;;;12.12;86.65
68525;BME280;55524;51.380;13.372;2022-09-27T13:33:52;98670.84;;;12.08;85.96
68525;BME280;55524;51.380;13.372;2022-09-27T13:41:29;98670.84;;;12.32;86.10
68525;BME280;55524;51.380;13.372;2022-09-27T13:44:19;98661.44;;;12.87;82.25
68525;BME280;55524;51.380;13.372;2022-09-27T13:47:03;98660.88;;;13.06;80.88
68525;BME280;55524;51.380;13.372;2022-09-27T13:49:43;98672.44;;;13.05;82.26
68525;BME280;55524;51.380;13.372;2022-09-27T13:52:29;98676.16;;;13.02;82.28
68525;BME280;55524;51.380;13.372;2022-09-27T13:55:01;98691.28;;;12.78;81.97
68525;BME280;55524;51.380;13.372;2022-09-27T14:00:03;98696.25;;;12.59;83.62
68525;BME280;55524;51.380;13.372;2022-09-27T14:02:41;98693.28;;;12.63;83.43
68525;BME280;55524;51.380;13.372;2022-09-27T14:05:13;98696.38;;;12.57;84.74
68525;BME280;55524;51.380;13.372;2022-09-27T14:07:44;98697.44;;;12.54;84.47
68525;BME280;55524;51.380;13.372;2022-09-27T14:10:17;98700.66;;;12.47;85.49
68525;BME280;55524;51.380;13.372;2022-09-27T14:12:45;98709.22;;;12.26;85.11
68525;BME280;55524;51.380;13.372;2022-09-27T14:15:25;98711.22;;;12.36;86.89
68525;BME280;55524;51.380;13.372;2022-09-27T14:17:53;98707.31;;;12.28;89.16
68525;BME280;55524;51.380;13.372;2022-09-27T14:20:33;98714.44;;;12.39;89.42
68525;BME280;55524;51.380;13.372;2022-09-27T14:23:00;98719.75;;;12.39;88.48
68525;BME280;55524;51.380;13.372;2022-09-27T14:25:28;98722.03;;;12.57;87.50
68525;BME280;55524;51.380;13.372;2022-09-27T14:27:54;98715.06;;;12.55;86.74
68525;BME280;55524;51.380;13.372;2022-09-27T14:30:22;98721.56;;;12.63;86.46
68525;BME280;55524;51.380;13.372;2022-09-27T14:32:51;98726.00;;;12.75;87.23
68525;BME280;55524;51.380;13.372;2022-09-27T14:35:25;98721.06;;;12.82;86.55
68525;BME280;55524;51.380;13.372;2022-09-27T14:38:14;98733.41;;;12.70;87.62
68525;BME280;55524;51.380;13.372;2022-09-27T14:41:03;98727.50;;;12.66;86.54
68525;BME280;55524;51.380;13.372;2022-09-27T14:43:30;98720.06;;;12.71;86.12
68525;BME280;55524;51.380;13.372;2022-09-27T14:46:04;98724.84;;;12.66;86.67
68525;BME280;55524;51.380;13.372;2022-09-27T14:48:36;98730.25;;;12.65;87.49
68525;BME280;55524;51.380;13.372;2022-09-27T14:51:20;98723.91;;;12.67;86.88
68525;BME280;55524;51.380;13.372;2022-09-27T14:53:53;98731.94;;;12.66;85.15
68525;BME280;55524;51.380;13.372;2022-09-27T14:56:36;98731.88;;;12.54;85.71
68525;BME280;55524;51.380;13.372;2022-09-27T14:59:13;98734.03;;;12.49;85.29
68525;BME280;55524;51.380;13.372;2022-09-27T15:01:48;98736.69;;;12.49;84.23
68525;BME280;55524;51.380;13.372;2022-09-27T15:04:36;98747.91;;;12.53;83.44
68525;BME280;55524;51.380;13.372;2022-09-27T15:07:12;98714.41;;;12.28;75.56
68525;BME280;55524;51.380;13.372;2022-09-27T15:09:44;98727.91;;;12.12;75.80
68525;BME280;55524;51.380;13.372;2022-09-27T15:12:15;98750.81;;;11.49;79.74
68525;BME280;55524;51.380;13.372;2022-09-27T15:14:59;98742.41;;;11.30;81.41
68525;BME280;55524;51.380;13.372;2022-09-27T15:17:44;98742.50;;;11.16;82.51
68525;BME280;55524;51.380;13.372;2022-09-27T15:20:33;98746.75;;;11.18;83.32
68525;BME280;55524;51.380;13.372;2022-09-27T15:28:36;98736.56;;;11.12;87.52
68525;BME280;55524;51.380;13.372;2022-09-27T15:31:07;98748.34;;;11.21;87.52
68525;BME280;55524;51.380;13.372;2022-09-27T15:33:34;98743.25;;;11.18;86.69
68525;BME280;55524;51.380;13.372;2022-09-27T15:36:10;98754.34;;;11.23;87.60
68525;BME280;55524;51.380;13.372;2022-09-27T15:39:38;98743.38;;;11.29;83.93
68525;BME280;55524;51.380;13.372;2022-09-27T15:42:25;98742.53;;;11.54;82.94
68525;BME280;55524;51.380;13.372;2022-09-27T15:44:53;98743.81;;;11.61;83.11
68525;BME280;55524;51.380;13.372;2022-09-27T15:52:57;98755.03;;;12.16;83.89
68525;BME280;55524;51.380;13.372;2022-09-27T15:55:27;98758.81;;;12.24;84.04
68525;BME280;55524;51.380;13.372;2022-09-27T15:58:17;98757.75;;;12.14;84.45
68525;BME280;55524;51.380;13.372;2022-09-27T16:00:59;98760.41;;;12.14;81.83
68525;BME280;55524;51.380;13.372;2022-09-27T16:03:29;98763.91;;;12.15;82.95
68525;BME280;55524;51.380;13.372;2022-09-27T16:05:56;98753.56;;;12.12;80.04
68525;BME280;55524;51.380;13.372;2022-09-27T16:08:23;98758.38;;;12.18;79.39
68525;BME280;55524;51.380;13.372;2022-09-27T16:10:55;98764.28;;;12.34;80.07
68525;BME280;55524;51.380;13.372;2022-09-27T16:13:22;98758.97;;;12.34;80.48
68525;BME280;55524;51.380;13.372;2022-09-27T16:15:48;98768.16;;;12.04;80.28
68525;BME280;55524;51.380;13.372;2022-09-27T16:18:15;98779.63;;;11.92;80.14
68525;BME280;55524;51.380;13.372;2022-09-27T16:20:42;98774.59;;;11.75;80.00
68525;BME280;55524;51.380;13.372;2022-09-27T16:23:08;98782.34;;;11.78;80.69
68525;BME280;55524;51.380;13.372;2022-09-27T16:25:34;98777.56;;;11.70;78.87
68525;BME280;55524;51.380;13.372;2022-09-27T16:28:02;98778.75;;;11.53;78.41
68525;BME280;55524;51.380;13.372;2022-09-27T16:30:28;98788.38;;;11.54;78.94
68525;BME280;55524;51.380;13.372;2022-09-27T16:32:55;98789.19;;;11.42;79.22
68525;BME280;55524;51.380;13.372;2022-09-27T16:35:22;98786.94;;;11.36;79.52
68525;BME280;55524;51.380;13.372;2022-09-27T16:37:49;98797.50;;;11.23;80.60
68525;BME280;55524;51.380;13.372;2022-09-27T16:40:38;98793.69;;;11.15;81.47
68525;BME280;55524;51.380;13.372;2022-09-27T16:43:26;98805.53;;;11.09;82.73
68525;BME280;55524;51.380;13.372;2022-09-27T16:45:52;98809.41;;;11.03;83.41
68525;BME280;55524;51.380;13.372;2022-09-27T16:48:19;98808.09;;;10.96;84.22
68525;BME280;55524;51.380;13.372;2022-09-27T16:50:46;98806.84;;;10.89;85.10
68525;BME280;55524;51.380;13.372;2022-09-27T16:53:30;98814.81;;;10.75;85.67
68525;BME280;55524;51.380;13.372;2022-09-27T16:56:00;98811.63;;;10.70;86.16
68525;BME280;55524;51.380;13.372;2022-09-27T16:58:31;98818.22;;;10.63;87.66
68525;BME280;55524;51.380;13.372;2022-09-27T17:00:58;98818.72;;;10.55;87.06
68525;BME280;55524;51.380;13.372;2022-09-27T17:03:24;98809.19;;;10.52;87.63
68525;BME280;55524;51.380;13.372;2022-09-27T17:05:50;98823.44;;;10.50;87.55
68525;BME280;55524;51.380;13.372;2022-09-27T17:08:17;98816.75;;;10.44;87.01
68525;BME280;55524;51.380;13.372;2022-09-27T17:10:46;98822.88;;;10.45;86.78
68525;BME280;55524;51.380;13.372;2022-09-27T17:13:12;98820.72;;;10.37;86.39
68525;BME280;55524;51.380;13.372;2022-09-27T17:15:39;98829.59;;;10.36;87.24
68525;BME280;55524;51.380;13.372;2022-09-27T17:18:06;98822.91;;;10.30;86.29
68525;BME280;55524;51.380;13.372;2022-09-27T17:20:33;98832.81;;;10.27;86.64
68525;BME280;55524;51.380;13.372;2022-09-27T17:22:59;98836.91;;;10.17;87.70
68525;BME280;55524;51.380;13.372;2022-09-27T17:25:47;98831.19;;;10.10;87.28
68525;BME280;55524;51.380;13.372;2022-09-27T17:28:17;98834.56;;;10.12;86.82
68525;BME280;55524;51.380;13.372;2022-09-27T17:30:43;98832.22;;;10.07;86.96
68525;BME280;55524;51.380;13.372;2022-09-27T17:33:10;98838.44;;;10.06;86.80
68525;BME280;55524;51.380;13.372;2022-09-27T17:35:37;98841.25;;;10.03;86.76
68525;BME280;55524;51.380;13.372;2022-09-27T17:38:04;98847.50;;;10.02;86.84
68525;BME280;55524;51.380;13.372;2022-09-27T17:40:32;98850.59;;;9.95;87.32
68525;BME280;55524;51.380;13.372;2022-09-27T17:43:04;98850.78;;;9.92;87.77
68525;BME280;55524;51.380;13.372;2022-09-27T17:48:52;98854.16;;;9.94;87.32
68525;BME280;55524;51.380;13.372;2022-09-27T17:51:39;98850.88;;;9.90;88.91
68525;BME280;55524;51.380;13.372;2022-09-27T17:54:07;98852.19;;;9.83;88.93
68525;BME280;55524;51.380;13.372;2022-09-27T17:56:38;98860.44;;;9.77;90.34
68525;BME280;55524;51.380;13.372;2022-09-27T17:59:05;98862.63;;;9.70;90.74
68525;BME280;55524;51.380;13.372;2022-09-27T18:01:32;98862.69;;;9.69;91.44
68525;BME280;55524;51.380;13.372;2022-09-27T18:04:00;98866.56;;;9.63;92.09
68525;BME280;55524;51.380;13.372;2022-09-27T18:06:28;98868.34;;;9.63;91.91